sensor_id;sensor_type;location;lat;lon;timestamp;temperature;humidity
1137;DHT22;557;48.466;7.950;2022-09-01T00:01:20;16.30;99.90
1137;DHT22;557;48.466;7.950;2022-09-01T00:04:09;16.30;99.90
1137;DHT22;557;48.466;7.950;2022-09-01T00:06:55;16.30;99.90
1137;DHT22;557;48.466;7.950;2022-09-01T00:09:43;16.20;99.90
1137;DHT22;557;48.466;7.950;2022-09-01T00:12:30;16.20;99.90
1137;DHT22;557;48.466;7.950;2022-09-01T00:15:16;16.20;99.90
1137;DHT22;557;48.466;7.950;2022-09-01T00:18:03;16.10;99.90
1137;DHT22;557;48.466;7.950;2022-09-01T00:20:49;16.20;99.90
1137;DHT22;557;48.466;7.950;2022-09-01T00:23:35;16.10;99.90
1137;DHT22;557;48.466;7.950;2022-09-01T00:26:21;16.10;99.90
1137;DHT22;557;48.466;7.950;2022-09-01T00:29:09;16.10;99.90
1137;DHT22;557;48.466;7.950;2022-09-01T00:31:55;16.00;99.90
1137;DHT22;557;48.466;7.950;2022-09-01T00:34:41;16.00;99.90
1137;DHT22;557;48.466;7.950;2022-09-01T00:37:26;15.90;99.90
1137;DHT22;557;48.466;7.950;2022-09-01T00:40:15;15.90;99.90
1137;DHT22;557;48.466;7.950;2022-09-01T00:43:10;15.90;99.90
1137;DHT22;557;48.466;7.950;2022-09-01T00:45:57;15.90;99.90
1137;DHT22;557;48.466;7.950;2022-09-01T00:48:43;15.80;99.90
1137;DHT22;557;48.466;7.950;2022-09-01T00:51:29;15.90;99.90
1137;DHT22;557;48.466;7.950;2022-09-01T00:54:19;15.90;99.90
1137;DHT22;557;48.466;7.950;2022-09-01T00:57:07;15.90;99.90
1137;DHT22;557;48.466;7.950;2022-09-01T00:59:57;15.90;99.90
1137;DHT22;557;48.466;7.950;2022-09-01T01:02:45;15.90;99.90
1137;DHT22;557;48.466;7.950;2022-09-01T01:05:36;15.80;99.90
1137;DHT22;557;48.466;7.950;2022-09-01T01:08:26;15.90;99.90
1137;DHT22;557;48.466;7.950;2022-09-01T01:11:20;15.90;99.90
1137;DHT22;557;48.466;7.950;2022-09-01T01:14:08;15.80;99.90
1137;DHT22;557;48.466;7.950;2022-09-01T01:16:55;15.80;99.90
1137;DHT22;557;48.466;7.950;2022-09-01T01:19:44;15.80;99.90
1137;DHT22;557;48.466;7.950;2022-09-01T01:22:54;15.70;99.90
1137;DHT22;557;48.466;7.950;2022-09-01T01:25:53;15.70;99.90
1137;DHT22;557;48.466;7.950;2022-09-01T01:28:40;15.70;99.90
1137;DHT22;557;48.466;7.950;2022-09-01T01:31:27;15.70;99.90
1137;DHT22;557;48.466;7.950;2022-09-01T01:34:15;15.60;99.90
1137;DHT22;557;48.466;7.950;2022-09-01T01:37:01;15.50;99.90
1137;DHT22;557;48.466;7.950;2022-09-01T01:39:47;15.60;99.90
1137;DHT22;557;48.466;7.950;2022-09-01T01:42:34;15.60;99.90
1137;DHT22;557;48.466;7.950;2022-09-01T01:45:23;15.50;99.90
1137;DHT22;557;48.466;7.950;2022-09-01T01:48:09;15.50;99.90
1137;DHT22;557;48.466;7.950;2022-09-01T01:50:56;15.60;99.90
1137;DHT22;557;48.466;7.950;2022-09-01T01:53:44;15.50;99.90
1137;DHT22;557;48.466;7.950;2022-09-01T01:56:32;15.50;99.90
1137;DHT22;557;48.466;7.950;2022-09-01T01:59:22;15.50;99.90
1137;DHT22;557;48.466;7.950;2022-09-01T02:02:09;15.50;99.90
1137;DHT22;557;48.466;7.950;2022-09-01T02:04:55;15.40;99.90
1137;DHT22;557;48.466;7.950;2022-09-01T02:07:41;15.40;99.90
1137;DHT22;557;48.466;7.950;2022-09-01T02:10:31;15.40;99.90
1137;DHT22;557;48.466;7.950;2022-09-01T02:13:21;15.30;99.90
1137;DHT22;557;48.466;7.950;2022-09-01T02:16:15;15.30;99.90
1137;DHT22;557;48.466;7.950;2022-09-01T02:19:03;15.30;99.90
1137;DHT22;557;48.466;7.950;2022-09-01T02:21:50;15.30;99.90
1137;DHT22;557;48.466;7.950;2022-09-01T02:24:39;15.20;99.90
1137;DHT22;557;48.466;7.950;2022-09-01T02:27:29;15.30;99.90
1137;DHT22;557;48.466;7.950;2022-09-01T02:30:17;15.20;99.90
1137;DHT22;557;48.466;7.950;2022-09-01T02:33:04;15.20;99.90
1137;DHT22;557;48.466;7.950;2022-09-01T02:35:55;15.20;99.90
1137;DHT22;557;48.466;7.950;2022-09-01T02:38:42;15.20;99.90
1137;DHT22;557;48.466;7.950;2022-09-01T02:41:29;15.20;99.90
1137;DHT22;557;48.466;7.950;2022-09-01T02:44:18;15.20;99.90
1137;DHT22;557;48.466;7.950;2022-09-01T02:47:05;15.10;99.90
1137;DHT22;557;48.466;7.950;2022-09-01T02:49:54;15.10;99.90
1137;DHT22;557;48.466;7.950;2022-09-01T02:52:42;15.00;99.90
1137;DHT22;557;48.466;7.950;2022-09-01T02:55:28;15.00;99.90
1137;DHT22;557;48.466;7.950;2022-09-01T02:58:13;15.00;99.90
1137;DHT22;557;48.466;7.950;2022-09-01T03:01:02;15.00;99.90
1137;DHT22;557;48.466;7.950;2022-09-01T03:03:49;14.90;99.90
1137;DHT22;557;48.466;7.950;2022-09-01T03:06:37;14.90;99.90
1137;DHT22;557;48.466;7.950;2022-09-01T03:09:23;14.90;99.90
1137;DHT22;557;48.466;7.950;2022-09-01T03:12:10;14.90;99.90
1137;DHT22;557;48.466;7.950;2022-09-01T03:14:56;15.00;99.90
1137;DHT22;557;48.466;7.950;2022-09-01T03:17:42;15.00;99.90
1137;DHT22;557;48.466;7.950;2022-09-01T03:20:31;15.00;99.90
1137;DHT22;557;48.466;7.950;2022-09-01T03:23:19;15.10;99.90
1137;DHT22;557;48.466;7.950;2022-09-01T03:26:05;15.10;99.90
1137;DHT22;557;48.466;7.950;2022-09-01T03:28:51;15.10;99.90
1137;DHT22;557;48.466;7.950;2022-09-01T03:31:37;15.10;99.90
1137;DHT22;557;48.466;7.950;2022-09-01T03:34:23;15.10;99.90
1137;DHT22;557;48.466;7.950;2022-09-01T03:37:10;15.10;99.90
1137;DHT22;557;48.466;7.950;2022-09-01T03:39:57;15.10;99.90
1137;DHT22;557;48.466;7.950;2022-09-01T03:42:43;15.10;99.90
1137;DHT22;557;48.466;7.950;2022-09-01T03:45:30;15.10;99.90
1137;DHT22;557;48.466;7.950;2022-09-01T03:48:19;15.00;99.90
1137;DHT22;557;48.466;7.950;2022-09-01T03:51:05;15.00;99.90
1137;DHT22;557;48.466;7.950;2022-09-01T03:53:53;15.00;99.90
1137;DHT22;557;48.466;7.950;2022-09-01T03:56:41;15.00;99.90
1137;DHT22;557;48.466;7.950;2022-09-01T03:59:27;14.90;99.90
1137;DHT22;557;48.466;7.950;2022-09-01T04:02:13;14.90;99.90
1137;DHT22;557;48.466;7.950;2022-09-01T04:05:11;14.80;99.90
1137;DHT22;557;48.466;7.950;2022-09-01T04:07:58;14.80;99.90
1137;DHT22;557;48.466;7.950;2022-09-01T04:10:47;14.70;99.90
1137;DHT22;557;48.466;7.950;2022-09-01T04:13:37;14.70;99.90
1137;DHT22;557;48.466;7.950;2022-09-01T04:16:25;14.70;99.90
1137;DHT22;557;48.466;7.950;2022-09-01T04:19:27;14.60;99.90
1137;DHT22;557;48.466;7.950;2022-09-01T04:22:13;14.70;99.90
1137;DHT22;557;48.466;7.950;2022-09-01T04:25:00;14.60;99.90
1137;DHT22;557;48.466;7.950;2022-09-01T04:27:46;14.60;99.90
1137;DHT22;557;48.466;7.950;2022-09-01T04:30:33;14.60;99.90
1137;DHT22;557;48.466;7.950;2022-09-01T04:33:19;14.60;99.90
1137;DHT22;557;48.466;7.950;2022-09-01T04:36:14;14.60;99.90
1137;DHT22;557;48.466;7.950;2022-09-01T04:39:03;14.60;99.90
1137;DHT22;557;48.466;7.950;2022-09-01T04:41:52;14.60;99.90
1137;DHT22;557;48.466;7.950;2022-09-01T04:44:38;14.60;99.90
1137;DHT22;557;48.466;7.950;2022-09-01T04:47:26;14.60;99.90
1137;DHT22;557;48.466;7.950;2022-09-01T04:50:14;14.60;99.90
1137;DHT22;557;48.466;7.950;2022-09-01T04:53:07;14.60;99.90
1137;DHT22;557;48.466;7.950;2022-09-01T04:55:55;14.70;99.90
1137;DHT22;557;48.466;7.950;2022-09-01T04:58:41;14.70;99.90
1137;DHT22;557;48.466;7.950;2022-09-01T05:01:27;14.70;99.90
1137;DHT22;557;48.466;7.950;2022-09-01T05:04:16;14.80;99.90
1137;DHT22;557;48.466;7.950;2022-09-01T05:07:04;14.90;99.90
1137;DHT22;557;48.466;7.950;2022-09-01T05:09:52;14.90;99.90
1137;DHT22;557;48.466;7.950;2022-09-01T05:12:38;14.90;99.90
1137;DHT22;557;48.466;7.950;2022-09-01T05:15:24;14.90;99.90
1137;DHT22;557;48.466;7.950;2022-09-01T05:18:10;15.00;99.90
1137;DHT22;557;48.466;7.950;2022-09-01T05:20:58;15.00;99.90
1137;DHT22;557;48.466;7.950;2022-09-01T05:23:55;15.00;99.90
1137;DHT22;557;48.466;7.950;2022-09-01T05:26:44;15.00;99.90
1137;DHT22;557;48.466;7.950;2022-09-01T05:29:33;15.10;99.90
1137;DHT22;557;48.466;7.950;2022-09-01T05:32:19;15.10;99.90
1137;DHT22;557;48.466;7.950;2022-09-01T05:35:06;15.20;99.90
1137;DHT22;557;48.466;7.950;2022-09-01T05:37:53;15.10;99.90
1137;DHT22;557;48.466;7.950;2022-09-01T05:40:40;15.20;99.90
1137;DHT22;557;48.466;7.950;2022-09-01T05:43:27;15.20;99.90
1137;DHT22;557;48.466;7.950;2022-09-01T05:46:15;15.20;99.90
1137;DHT22;557;48.466;7.950;2022-09-01T05:49:03;15.20;99.90
1137;DHT22;557;48.466;7.950;2022-09-01T05:51:50;15.20;99.90
1137;DHT22;557;48.466;7.950;2022-09-01T05:54:43;15.20;99.90
1137;DHT22;557;48.466;7.950;2022-09-01T05:57:31;15.20;99.90
1137;DHT22;557;48.466;7.950;2022-09-01T06:00:19;15.30;99.90
1137;DHT22;557;48.466;7.950;2022-09-01T06:03:05;15.30;99.90
1137;DHT22;557;48.466;7.950;2022-09-01T06:05:52;15.30;99.90
1137;DHT22;557;48.466;7.950;2022-09-01T06:08:38;15.40;99.90
1137;DHT22;557;48.466;7.950;2022-09-01T06:11:27;15.40;99.90
1137;DHT22;557;48.466;7.950;2022-09-01T06:14:16;15.50;99.90
1137;DHT22;557;48.466;7.950;2022-09-01T06:17:04;15.60;99.90
1137;DHT22;557;48.466;7.950;2022-09-01T06:19:54;15.70;99.90
1137;DHT22;557;48.466;7.950;2022-09-01T06:22:40;15.70;99.90
1137;DHT22;557;48.466;7.950;2022-09-01T06:25:25;15.80;99.90
1137;DHT22;557;48.466;7.950;2022-09-01T06:28:16;15.90;99.90
1137;DHT22;557;48.466;7.950;2022-09-01T06:31:06;16.00;99.90
1137;DHT22;557;48.466;7.950;2022-09-01T06:33:53;16.00;99.90
1137;DHT22;557;48.466;7.950;2022-09-01T06:36:39;16.10;99.90
1137;DHT22;557;48.466;7.950;2022-09-01T06:39:26;16.20;99.90
1137;DHT22;557;48.466;7.950;2022-09-01T06:42:12;16.30;99.90
1137;DHT22;557;48.466;7.950;2022-09-01T06:45:00;16.40;99.90
1137;DHT22;557;48.466;7.950;2022-09-01T06:47:47;16.50;99.90
1137;DHT22;557;48.466;7.950;2022-09-01T06:50:34;16.60;99.90
1137;DHT22;557;48.466;7.950;2022-09-01T06:53:21;16.70;99.90
1137;DHT22;557;48.466;7.950;2022-09-01T06:56:07;16.80;99.90
1137;DHT22;557;48.466;7.950;2022-09-01T06:58:54;16.80;99.90
1137;DHT22;557;48.466;7.950;2022-09-01T07:01:41;17.00;99.90
1137;DHT22;557;48.466;7.950;2022-09-01T07:04:28;17.20;99.90
1137;DHT22;557;48.466;7.950;2022-09-01T07:07:14;17.30;99.90
1137;DHT22;557;48.466;7.950;2022-09-01T07:10:00;17.50;99.90
1137;DHT22;557;48.466;7.950;2022-09-01T07:12:47;17.50;99.90
1137;DHT22;557;48.466;7.950;2022-09-01T07:15:33;17.70;99.90
1137;DHT22;557;48.466;7.950;2022-09-01T07:18:21;17.80;99.90
1137;DHT22;557;48.466;7.950;2022-09-01T07:21:08;18.00;99.90
1137;DHT22;557;48.466;7.950;2022-09-01T07:23:54;18.00;99.90
1137;DHT22;557;48.466;7.950;2022-09-01T07:26:41;18.10;99.90
1137;DHT22;557;48.466;7.950;2022-09-01T07:29:27;18.30;99.90
1137;DHT22;557;48.466;7.950;2022-09-01T07:32:13;18.40;99.90
1137;DHT22;557;48.466;7.950;2022-09-01T07:35:07;18.50;93.40
1137;DHT22;557;48.466;7.950;2022-09-01T07:37:53;18.60;26.40
1137;DHT22;557;48.466;7.950;2022-09-01T07:40:41;18.60;85.30
1137;DHT22;557;48.466;7.950;2022-09-01T07:43:26;18.80;60.90
1137;DHT22;557;48.466;7.950;2022-09-01T07:46:13;19.00;44.50
1137;DHT22;557;48.466;7.950;2022-09-01T07:48:59;18.90;1.00
1137;DHT22;557;48.466;7.950;2022-09-01T07:51:47;18.90;40.50
1137;DHT22;557;48.466;7.950;2022-09-01T07:54:34;19.10;1.80
1137;DHT22;557;48.466;7.950;2022-09-01T07:57:20;19.20;2.80
1137;DHT22;557;48.466;7.950;2022-09-01T08:00:07;19.40;32.50
1137;DHT22;557;48.466;7.950;2022-09-01T08:02:54;19.60;1.00
1137;DHT22;557;48.466;7.950;2022-09-01T08:05:39;19.90;1.00
1137;DHT22;557;48.466;7.950;2022-09-01T08:08:27;20.10;1.00
1137;DHT22;557;48.466;7.950;2022-09-01T08:11:16;20.10;1.00
1137;DHT22;557;48.466;7.950;2022-09-01T08:14:02;20.20;1.00
1137;DHT22;557;48.466;7.950;2022-09-01T08:16:48;20.30;1.00
1137;DHT22;557;48.466;7.950;2022-09-01T08:19:34;20.50;1.00
1137;DHT22;557;48.466;7.950;2022-09-01T08:22:20;20.50;1.00
1137;DHT22;557;48.466;7.950;2022-09-01T08:25:10;20.70;1.00
1137;DHT22;557;48.466;7.950;2022-09-01T08:27:57;21.00;1.00
1137;DHT22;557;48.466;7.950;2022-09-01T08:30:44;21.10;1.00
1137;DHT22;557;48.466;7.950;2022-09-01T08:33:31;21.20;99.90
1137;DHT22;557;48.466;7.950;2022-09-01T08:36:19;21.20;68.40
1137;DHT22;557;48.466;7.950;2022-09-01T08:39:05;21.30;99.90
1137;DHT22;557;48.466;7.950;2022-09-01T08:42:00;21.60;99.90
1137;DHT22;557;48.466;7.950;2022-09-01T08:44:57;21.60;99.90
1137;DHT22;557;48.466;7.950;2022-09-01T08:47:44;21.80;99.90
1137;DHT22;557;48.466;7.950;2022-09-01T08:50:32;21.90;1.00
1137;DHT22;557;48.466;7.950;2022-09-01T08:53:24;22.00;99.90
1137;DHT22;557;48.466;7.950;2022-09-01T08:56:12;22.10;1.00
1137;DHT22;557;48.466;7.950;2022-09-01T08:59:01;22.20;1.00
1137;DHT22;557;48.466;7.950;2022-09-01T09:01:51;22.40;1.00
1137;DHT22;557;48.466;7.950;2022-09-01T09:04:49;22.40;1.00
1137;DHT22;557;48.466;7.950;2022-09-01T09:07:50;22.40;1.00
1137;DHT22;557;48.466;7.950;2022-09-01T09:10:44;22.40;1.00
1137;DHT22;557;48.466;7.950;2022-09-01T09:13:45;22.40;1.00
1137;DHT22;557;48.466;7.950;2022-09-01T09:16:37;21.90;1.00
1137;DHT22;557;48.466;7.950;2022-09-01T09:19:29;21.60;99.90
1137;DHT22;557;48.466;7.950;2022-09-01T09:22:17;21.80;99.90
1137;DHT22;557;48.466;7.950;2022-09-01T09:25:07;22.20;1.00
1137;DHT22;557;48.466;7.950;2022-09-01T09:27:54;22.70;99.90
1137;DHT22;557;48.466;7.950;2022-09-01T09:30:40;22.90;1.00
1137;DHT22;557;48.466;7.950;2022-09-01T09:33:35;22.80;99.90
1137;DHT22;557;48.466;7.950;2022-09-01T09:36:28;22.80;99.90
1137;DHT22;557;48.466;7.950;2022-09-01T09:39:17;22.90;99.90
1137;DHT22;557;48.466;7.950;2022-09-01T09:42:07;23.40;99.90
1137;DHT22;557;48.466;7.950;2022-09-01T09:44:55;23.40;1.00
1137;DHT22;557;48.466;7.950;2022-09-01T09:47:43;23.40;99.90
1137;DHT22;557;48.466;7.950;2022-09-01T09:50:33;23.50;99.90
1137;DHT22;557;48.466;7.950;2022-09-01T09:53:26;23.60;1.00
1137;DHT22;557;48.466;7.950;2022-09-01T09:56:24;23.80;99.90
1137;DHT22;557;48.466;7.950;2022-09-01T09:59:18;23.70;99.90
1137;DHT22;557;48.466;7.950;2022-09-01T10:02:21;23.90;99.90
1137;DHT22;557;48.466;7.950;2022-09-01T10:05:25;24.20;99.90
1137;DHT22;557;48.466;7.950;2022-09-01T10:08:38;24.50;99.90
1137;DHT22;557;48.466;7.950;2022-09-01T10:11:32;24.50;99.90
1137;DHT22;557;48.466;7.950;2022-09-01T10:14:21;24.40;99.90
1137;DHT22;557;48.466;7.950;2022-09-01T10:17:16;24.30;99.90
1137;DHT22;557;48.466;7.950;2022-09-01T10:20:06;24.10;99.90
1137;DHT22;557;48.466;7.950;2022-09-01T10:22:53;23.90;99.90
1137;DHT22;557;48.466;7.950;2022-09-01T10:25:40;23.90;99.90
1137;DHT22;557;48.466;7.950;2022-09-01T10:28:27;24.00;99.90
1137;DHT22;557;48.466;7.950;2022-09-01T10:31:16;24.20;99.90
1137;DHT22;557;48.466;7.950;2022-09-01T10:34:04;24.30;99.90
1137;DHT22;557;48.466;7.950;2022-09-01T10:36:49;24.30;99.90
1137;DHT22;557;48.466;7.950;2022-09-01T10:40:15;24.60;99.90
1137;DHT22;557;48.466;7.950;2022-09-01T10:43:24;24.80;99.90
1137;DHT22;557;48.466;7.950;2022-09-01T10:46:43;24.90;99.90
1137;DHT22;557;48.466;7.950;2022-09-01T10:53:00;26.00;99.90
1137;DHT22;557;48.466;7.950;2022-09-01T10:56:00;26.20;99.90
1137;DHT22;557;48.466;7.950;2022-09-01T10:59:03;26.50;99.90
1137;DHT22;557;48.466;7.950;2022-09-01T11:02:09;26.90;99.90
1137;DHT22;557;48.466;7.950;2022-09-01T11:05:13;26.70;99.90
1137;DHT22;557;48.466;7.950;2022-09-01T11:08:23;26.20;99.90
1137;DHT22;557;48.466;7.950;2022-09-01T11:11:32;25.80;99.90
1137;DHT22;557;48.466;7.950;2022-09-01T11:14:21;26.60;99.90
1137;DHT22;557;48.466;7.950;2022-09-01T11:17:12;27.40;99.90
1137;DHT22;557;48.466;7.950;2022-09-01T11:20:03;27.80;99.90
1137;DHT22;557;48.466;7.950;2022-09-01T11:23:00;28.00;93.70
1137;DHT22;557;48.466;7.950;2022-09-01T11:25:47;27.50;89.60
1137;DHT22;557;48.466;7.950;2022-09-01T11:28:41;26.80;84.00
1137;DHT22;557;48.466;7.950;2022-09-01T11:31:36;26.90;94.90
1137;DHT22;557;48.466;7.950;2022-09-01T11:34:26;27.40;91.90
1137;DHT22;557;48.466;7.950;2022-09-01T11:37:16;27.70;80.00
1137;DHT22;557;48.466;7.950;2022-09-01T11:40:05;27.40;68.90
1137;DHT22;557;48.466;7.950;2022-09-01T11:42:53;27.10;67.10
1137;DHT22;557;48.466;7.950;2022-09-01T11:45:52;27.50;68.50
1137;DHT22;557;48.466;7.950;2022-09-01T11:48:38;28.20;63.00
1137;DHT22;557;48.466;7.950;2022-09-01T11:51:39;28.80;67.90
1137;DHT22;557;48.466;7.950;2022-09-01T11:54:28;28.70;58.00
1137;DHT22;557;48.466;7.950;2022-09-01T11:57:20;28.90;52.90
1137;DHT22;557;48.466;7.950;2022-09-01T12:00:08;29.10;50.40
1137;DHT22;557;48.466;7.950;2022-09-01T12:02:56;29.10;39.80
1137;DHT22;557;48.466;7.950;2022-09-01T12:05:44;29.10;34.20
1137;DHT22;557;48.466;7.950;2022-09-01T12:08:35;29.30;36.70
1137;DHT22;557;48.466;7.950;2022-09-01T12:11:24;29.40;35.20
1137;DHT22;557;48.466;7.950;2022-09-01T12:14:20;28.90;31.80
1137;DHT22;557;48.466;7.950;2022-09-01T12:17:06;28.10;25.80
1137;DHT22;557;48.466;7.950;2022-09-01T12:19:54;27.50;24.30
1137;DHT22;557;48.466;7.950;2022-09-01T12:22:41;27.50;26.30
1137;DHT22;557;48.466;7.950;2022-09-01T12:25:29;28.30;28.20
1137;DHT22;557;48.466;7.950;2022-09-01T12:28:15;29.30;27.20
1137;DHT22;557;48.466;7.950;2022-09-01T12:31:03;29.60;25.30
1137;DHT22;557;48.466;7.950;2022-09-01T12:33:50;29.80;25.70
1137;DHT22;557;48.466;7.950;2022-09-01T12:36:38;29.90;20.90
1137;DHT22;557;48.466;7.950;2022-09-01T12:39:24;29.90;16.50
1137;DHT22;557;48.466;7.950;2022-09-01T12:42:21;28.80;9.20
1137;DHT22;557;48.466;7.950;2022-09-01T12:45:09;27.60;3.70
1137;DHT22;557;48.466;7.950;2022-09-01T12:47:56;27.00;2.20
1137;DHT22;557;48.466;7.950;2022-09-01T12:50:43;27.50;5.50
1137;DHT22;557;48.466;7.950;2022-09-01T12:53:33;27.70;7.90
1137;DHT22;557;48.466;7.950;2022-09-01T12:56:28;27.60;5.40
1137;DHT22;557;48.466;7.950;2022-09-01T12:59:22;27.30;5.40
1137;DHT22;557;48.466;7.950;2022-09-01T13:02:27;26.90;8.10
1137;DHT22;557;48.466;7.950;2022-09-01T13:05:27;26.90;7.60
1137;DHT22;557;48.466;7.950;2022-09-01T13:08:16;28.20;16.00
1137;DHT22;557;48.466;7.950;2022-09-01T13:11:13;29.20;9.20
1137;DHT22;557;48.466;7.950;2022-09-01T13:14:00;30.10;9.60
1137;DHT22;557;48.466;7.950;2022-09-01T13:16:47;31.00;12.70
1137;DHT22;557;48.466;7.950;2022-09-01T13:19:32;31.60;9.00
1137;DHT22;557;48.466;7.950;2022-09-01T13:22:18;31.70;5.50
1137;DHT22;557;48.466;7.950;2022-09-01T13:25:05;31.80;7.50
1137;DHT22;557;48.466;7.950;2022-09-01T13:27:54;32.10;5.10
1137;DHT22;557;48.466;7.950;2022-09-01T13:30:40;32.40;4.60
1137;DHT22;557;48.466;7.950;2022-09-01T13:33:27;32.40;3.00
1137;DHT22;557;48.466;7.950;2022-09-01T13:36:14;32.20;1.00
1137;DHT22;557;48.466;7.950;2022-09-01T13:39:00;31.80;1.00
1137;DHT22;557;48.466;7.950;2022-09-01T13:41:45;31.70;1.00
1137;DHT22;557;48.466;7.950;2022-09-01T13:44:33;31.00;1.00
1137;DHT22;557;48.466;7.950;2022-09-01T13:47:18;30.10;1.00
1137;DHT22;557;48.466;7.950;2022-09-01T13:50:06;30.00;1.00
1137;DHT22;557;48.466;7.950;2022-09-01T13:52:55;29.90;1.00
1137;DHT22;557;48.466;7.950;2022-09-01T13:55:41;30.20;1.00
1137;DHT22;557;48.466;7.950;2022-09-01T13:58:27;29.60;1.00
1137;DHT22;557;48.466;7.950;2022-09-01T14:01:13;29.40;1.00
1137;DHT22;557;48.466;7.950;2022-09-01T14:04:00;29.30;1.00
1137;DHT22;557;48.466;7.950;2022-09-01T14:06:47;30.20;1.00
1137;DHT22;557;48.466;7.950;2022-09-01T14:09:36;31.70;1.00
1137;DHT22;557;48.466;7.950;2022-09-01T14:12:23;33.00;1.00
1137;DHT22;557;48.466;7.950;2022-09-01T14:15:10;33.50;1.00
1137;DHT22;557;48.466;7.950;2022-09-01T14:17:57;34.10;1.00
1137;DHT22;557;48.466;7.950;2022-09-01T14:20:46;33.80;1.00
1137;DHT22;557;48.466;7.950;2022-09-01T14:23:33;32.30;1.00
1137;DHT22;557;48.466;7.950;2022-09-01T14:26:18;31.90;1.00
1137;DHT22;557;48.466;7.950;2022-09-01T14:29:04;31.30;1.00
1137;DHT22;557;48.466;7.950;2022-09-01T14:31:50;31.20;1.00
1137;DHT22;557;48.466;7.950;2022-09-01T14:34:37;31.20;1.00
1137;DHT22;557;48.466;7.950;2022-09-01T14:37:23;31.40;1.00
1137;DHT22;557;48.466;7.950;2022-09-01T14:40:12;31.50;1.00
1137;DHT22;557;48.466;7.950;2022-09-01T14:42:59;31.40;1.00
1137;DHT22;557;48.466;7.950;2022-09-01T14:45:44;31.40;1.00
1137;DHT22;557;48.466;7.950;2022-09-01T14:48:31;31.20;1.00
1137;DHT22;557;48.466;7.950;2022-09-01T14:51:21;30.30;1.00
1137;DHT22;557;48.466;7.950;2022-09-01T14:54:07;29.30;1.00
1137;DHT22;557;48.466;7.950;2022-09-01T14:56:52;28.50;1.00
1137;DHT22;557;48.466;7.950;2022-09-01T14:59:38;27.90;1.00
1137;DHT22;557;48.466;7.950;2022-09-01T15:02:24;28.50;1.00
1137;DHT22;557;48.466;7.950;2022-09-01T15:05:12;29.40;1.00
1137;DHT22;557;48.466;7.950;2022-09-01T15:07:59;30.10;1.00
1137;DHT22;557;48.466;7.950;2022-09-01T15:10:45;30.30;1.00
1137;DHT22;557;48.466;7.950;2022-09-01T15:13:30;30.40;1.00
1137;DHT22;557;48.466;7.950;2022-09-01T15:16:19;30.10;1.00
1137;DHT22;557;48.466;7.950;2022-09-01T15:19:05;29.20;1.00
1137;DHT22;557;48.466;7.950;2022-09-01T15:21:52;28.50;1.00
1137;DHT22;557;48.466;7.950;2022-09-01T15:24:38;28.20;1.00
1137;DHT22;557;48.466;7.950;2022-09-01T15:27:24;27.90;1.00
1137;DHT22;557;48.466;7.950;2022-09-01T15:30:11;27.60;1.00
1137;DHT22;557;48.466;7.950;2022-09-01T15:32:59;27.40;1.00
1137;DHT22;557;48.466;7.950;2022-09-01T15:35:45;27.20;1.00
1137;DHT22;557;48.466;7.950;2022-09-01T15:38:31;27.00;1.00
1137;DHT22;557;48.466;7.950;2022-09-01T15:41:20;27.20;1.00
1137;DHT22;557;48.466;7.950;2022-09-01T15:44:06;27.20;1.00
1137;DHT22;557;48.466;7.950;2022-09-01T15:46:52;27.10;1.00
1137;DHT22;557;48.466;7.950;2022-09-01T15:49:37;26.80;1.00
1137;DHT22;557;48.466;7.950;2022-09-01T15:52:23;26.70;1.00
1137;DHT22;557;48.466;7.950;2022-09-01T15:55:10;27.30;1.00
1137;DHT22;557;48.466;7.950;2022-09-01T15:57:58;28.40;1.00
1137;DHT22;557;48.466;7.950;2022-09-01T16:00:44;29.60;1.00
1137;DHT22;557;48.466;7.950;2022-09-01T16:03:30;30.10;1.00
1137;DHT22;557;48.466;7.950;2022-09-01T16:06:15;30.60;1.00
1137;DHT22;557;48.466;7.950;2022-09-01T16:09:02;30.80;1.00
1137;DHT22;557;48.466;7.950;2022-09-01T16:11:48;30.50;1.00
1137;DHT22;557;48.466;7.950;2022-09-01T16:14:35;29.90;1.00
1137;DHT22;557;48.466;7.950;2022-09-01T16:17:25;29.40;1.00
1137;DHT22;557;48.466;7.950;2022-09-01T16:20:18;28.90;1.00
1137;DHT22;557;48.466;7.950;2022-09-01T16:23:12;28.60;1.00
1137;DHT22;557;48.466;7.950;2022-09-01T16:25:58;28.30;1.00
1137;DHT22;557;48.466;7.950;2022-09-01T16:28:48;28.10;1.00
1137;DHT22;557;48.466;7.950;2022-09-01T16:31:36;28.00;1.00
1137;DHT22;557;48.466;7.950;2022-09-01T16:34:22;28.20;1.00
1137;DHT22;557;48.466;7.950;2022-09-01T16:37:14;28.20;1.00
1137;DHT22;557;48.466;7.950;2022-09-01T16:40:11;27.90;1.00
1137;DHT22;557;48.466;7.950;2022-09-01T16:43:05;27.30;1.00
1137;DHT22;557;48.466;7.950;2022-09-01T16:45:58;26.80;1.00
1137;DHT22;557;48.466;7.950;2022-09-01T16:48:51;26.50;1.00
1137;DHT22;557;48.466;7.950;2022-09-01T16:51:45;26.30;1.00
1137;DHT22;557;48.466;7.950;2022-09-01T16:54:41;26.00;1.00
1137;DHT22;557;48.466;7.950;2022-09-01T16:57:38;25.80;1.00
1137;DHT22;557;48.466;7.950;2022-09-01T17:00:34;25.70;1.00
1137;DHT22;557;48.466;7.950;2022-09-01T17:03:27;25.60;1.00
1137;DHT22;557;48.466;7.950;2022-09-01T17:06:21;25.30;1.00
1137;DHT22;557;48.466;7.950;2022-09-01T17:09:09;25.10;1.00
1137;DHT22;557;48.466;7.950;2022-09-01T17:12:08;25.10;1.00
1137;DHT22;557;48.466;7.950;2022-09-01T17:14:58;25.00;1.00
1137;DHT22;557;48.466;7.950;2022-09-01T17:17:52;24.90;1.00
1137;DHT22;557;48.466;7.950;2022-09-01T17:20:42;24.90;1.00
1137;DHT22;557;48.466;7.950;2022-09-01T17:23:35;24.80;1.00
1137;DHT22;557;48.466;7.950;2022-09-01T17:26:25;24.70;1.00
1137;DHT22;557;48.466;7.950;2022-09-01T17:29:15;24.50;1.00
1137;DHT22;557;48.466;7.950;2022-09-01T17:32:14;24.30;1.00
1137;DHT22;557;48.466;7.950;2022-09-01T17:35:09;24.10;1.00
1137;DHT22;557;48.466;7.950;2022-09-01T17:38:02;24.00;1.00
1137;DHT22;557;48.466;7.950;2022-09-01T17:41:04;23.90;1.00
1137;DHT22;557;48.466;7.950;2022-09-01T17:43:56;23.60;27.20
1137;DHT22;557;48.466;7.950;2022-09-01T17:46:53;23.50;69.60
1137;DHT22;557;48.466;7.950;2022-09-01T17:49:46;23.30;45.40
1137;DHT22;557;48.466;7.950;2022-09-01T17:52:43;23.30;38.70
1137;DHT22;557;48.466;7.950;2022-09-01T17:55:41;23.20;11.20
1137;DHT22;557;48.466;7.950;2022-09-01T17:58:39;23.00;28.80
1137;DHT22;557;48.466;7.950;2022-09-01T18:01:29;22.90;34.50
1137;DHT22;557;48.466;7.950;2022-09-01T18:04:35;22.80;50.20
1137;DHT22;557;48.466;7.950;2022-09-01T18:07:34;22.70;45.50
1137;DHT22;557;48.466;7.950;2022-09-01T18:10:27;22.60;99.90
1137;DHT22;557;48.466;7.950;2022-09-01T18:13:17;22.40;99.90
1137;DHT22;557;48.466;7.950;2022-09-01T18:16:15;22.20;99.90
1137;DHT22;557;48.466;7.950;2022-09-01T18:19:04;22.30;99.90
1137;DHT22;557;48.466;7.950;2022-09-01T18:21:55;22.00;99.90
1137;DHT22;557;48.466;7.950;2022-09-01T18:24:48;21.90;99.90
1137;DHT22;557;48.466;7.950;2022-09-01T18:27:38;21.70;1.00
1137;DHT22;557;48.466;7.950;2022-09-01T18:30:30;21.60;99.90
1137;DHT22;557;48.466;7.950;2022-09-01T18:33:29;21.50;99.90
1137;DHT22;557;48.466;7.950;2022-09-01T18:36:25;21.40;99.90
1137;DHT22;557;48.466;7.950;2022-09-01T18:39:21;21.30;99.90
1137;DHT22;557;48.466;7.950;2022-09-01T18:42:20;21.20;99.90
1137;DHT22;557;48.466;7.950;2022-09-01T18:45:13;21.20;99.90
1137;DHT22;557;48.466;7.950;2022-09-01T18:48:10;21.10;99.90
1137;DHT22;557;48.466;7.950;2022-09-01T18:51:04;21.00;1.00
1137;DHT22;557;48.466;7.950;2022-09-01T18:53:56;20.90;99.90
1137;DHT22;557;48.466;7.950;2022-09-01T18:56:48;20.80;99.90